createdAt,value
2022-09-04T00:02:39.815Z,100173.13
2022-09-04T00:05:20.115Z,100174.81
2022-09-04T00:08:06.185Z,100176.94
2022-09-04T00:10:41.882Z,100161.06
2022-09-04T00:13:14.479Z,100174.22
2022-09-04T00:15:49.550Z,100168.78
2022-09-04T00:18:25.874Z,100169.22
2022-09-04T00:20:59.515Z,100164.41
2022-09-04T00:23:37.080Z,100167.34
2022-09-04T00:26:14.258Z,100167.13
2022-09-04T00:28:45.290Z,100162.28
2022-09-04T00:31:26.043Z,100157.84
2022-09-04T00:34:07.498Z,100160.19
2022-09-04T00:36:39.972Z,100150.53
2022-09-04T00:39:14.168Z,100149.50
2022-09-04T00:41:56.195Z,100162.22
2022-09-04T00:44:42.198Z,100165.13
2022-09-04T00:47:43.720Z,100170.56
2022-09-04T00:50:33.183Z,100163.84
2022-09-04T00:53:18.574Z,100159.03
2022-09-04T00:55:58.417Z,100170.50
2022-09-04T00:58:52.180Z,100174.69
2022-09-04T01:01:28.097Z,100175.09
2022-09-04T01:04:19.163Z,100178.66
2022-09-04T01:07:02.626Z,100176.97
2022-09-04T01:09:55.707Z,100178.03
2022-09-04T01:12:37.149Z,100180.53
2022-09-04T01:15:14.660Z,100181.78
2022-09-04T01:17:59.782Z,100182.19
2022-09-04T01:20:49.333Z,100182.78
2022-09-04T01:23:36.250Z,100171.09
2022-09-04T01:26:11.111Z,100177.59
2022-09-04T01:28:56.492Z,100178.19
2022-09-04T01:31:33.301Z,100170.50
2022-09-04T01:34:13.947Z,100178.63
2022-09-04T01:36:50.665Z,100172.78
2022-09-04T01:39:23.576Z,100168.38
2022-09-04T01:42:00.116Z,100171.72
2022-09-04T01:44:28.260Z,100170.69
2022-09-04T01:47:10.963Z,100161.91
2022-09-04T01:49:40.433Z,100153.97
2022-09-04T01:52:36.724Z,100157.97
2022-09-04T01:55:15.202Z,100155.44
2022-09-04T01:57:59.120Z,100157.31
2022-09-04T02:00:37.926Z,100153.97
2022-09-04T02:03:16.287Z,100150.84
2022-09-04T02:06:02.002Z,100129.53
2022-09-04T02:08:44.167Z,100117.44
2022-09-04T02:11:27.769Z,100133.31
2022-09-04T02:14:11.396Z,100147.28
2022-09-04T02:16:56.528Z,100151.88
2022-09-04T02:19:38.080Z,100147.09
2022-09-04T02:22:20.202Z,100150.22
2022-09-04T02:24:56.761Z,100147.50
2022-09-04T02:27:31.387Z,100149.22
2022-09-04T02:30:04.206Z,100152.78
2022-09-04T02:32:40.757Z,100154.22
2022-09-04T02:35:15.879Z,100147.56
2022-09-04T02:37:56.092Z,100144.22
2022-09-04T02:40:32.850Z,100131.50
2022-09-04T02:43:16.863Z,100128.97
2022-09-04T02:45:52.705Z,100142.13
2022-09-04T02:48:29.746Z,100143.63
2022-09-04T02:51:14.126Z,100139.03
2022-09-04T02:53:51.406Z,100153.03
2022-09-04T02:56:32.522Z,100147.81
2022-09-04T02:59:17.350Z,100150.31
2022-09-04T03:01:57.708Z,100160.13
2022-09-04T03:04:36.985Z,100160.75
2022-09-04T03:07:13.763Z,100164.13
2022-09-04T03:09:48.062Z,100168.09
2022-09-04T03:12:36.717Z,100163.50
2022-09-04T03:15:14.828Z,100158.69
2022-09-04T03:17:53.474Z,100157.84
2022-09-04T03:20:24.960Z,100157.25
2022-09-04T03:22:59.992Z,100159.34
2022-09-04T03:26:01.663Z,100148.25
2022-09-04T03:28:41.755Z,100163.94
2022-09-04T03:31:24.740Z,100176.69
2022-09-04T03:34:02.229Z,100160.19
2022-09-04T03:36:41.295Z,100159.34
2022-09-04T03:39:19.117Z,100164.63
2022-09-04T03:42:00.072Z,100157.31
2022-09-04T03:44:39.395Z,100145.97
2022-09-04T03:47:21.894Z,100147.06
2022-09-04T03:50:06.261Z,100149.16
2022-09-04T03:52:45.593Z,100143.72
2022-09-04T03:55:36.689Z,100145.16
2022-09-04T03:58:17.606Z,100146.88
2022-09-04T04:00:57.474Z,100171.94
2022-09-04T04:03:44.197Z,100164.84
2022-09-04T04:06:27.357Z,100157.09
2022-09-04T04:09:19.071Z,100158.13
2022-09-04T04:12:04.344Z,100166.91
2022-09-04T04:14:46.250Z,100259.00
2022-09-04T04:17:32.213Z,100273.19
2022-09-04T04:20:14.569Z,100272.63
2022-09-04T04:23:02.074Z,100301.91
2022-09-04T04:25:52.730Z,100303.22
2022-09-04T04:28:59.386Z,100308.03
2022-09-04T04:31:44.741Z,100322.72
2022-09-04T04:34:25.215Z,100319.13
2022-09-04T04:37:02.045Z,100321.22
2022-09-04T04:39:41.118Z,100323.81
2022-09-04T04:42:23.435Z,100325.38
2022-09-04T04:45:21.424Z,100336.88
2022-09-04T04:48:25.113Z,100338.09
2022-09-04T04:51:05.417Z,100334.66
2022-09-04T04:53:42.758Z,100339.22
2022-09-04T04:56:19.730Z,100342.28
2022-09-04T04:58:59.539Z,100353.56
2022-09-04T05:01:42.462Z,100357.59
2022-09-04T05:04:21.432Z,100363.13
2022-09-04T05:06:56.453Z,100353.44
2022-09-04T05:09:35.893Z,100359.84
2022-09-04T05:12:16.525Z,100362.31
2022-09-04T05:14:53.649Z,100360.56
2022-09-04T05:17:33.066Z,100356.28
2022-09-04T05:20:23.083Z,100357.44
2022-09-04T05:23:01.989Z,100365.03
2022-09-04T05:25:41.387Z,100374.63
2022-09-04T05:28:25.214Z,100384.69
2022-09-04T05:31:05.391Z,100380.13
2022-09-04T05:33:40.049Z,100384.16
2022-09-04T05:36:16.195Z,100378.38
2022-09-04T05:38:54.647Z,100387.16
2022-09-04T05:41:36.954Z,100383.53
2022-09-04T05:44:29.600Z,100392.59
2022-09-04T05:47:08.789Z,100395.78
2022-09-04T05:49:55.578Z,100391.88
2022-09-04T05:52:53.035Z,100396.63
2022-09-04T05:55:33.143Z,100401.47
2022-09-04T05:58:27.294Z,100412.78
2022-09-04T06:01:08.455Z,100414.44
2022-09-04T06:03:57.700Z,100427.78
2022-09-04T06:06:35.657Z,100437.41
2022-09-04T06:09:28.587Z,100429.94
2022-09-04T06:12:14.097Z,100449.56
2022-09-04T06:14:59.293Z,100454.63
2022-09-04T06:17:48.413Z,100456.78
2022-09-04T06:20:28.885Z,100460.53
2022-09-04T06:23:21.843Z,100473.88
2022-09-04T06:26:17.957Z,100479.94
2022-09-04T06:29:39.218Z,100473.50
2022-09-04T06:32:22.399Z,100484.97
2022-09-04T06:35:18.732Z,100492.94
2022-09-04T06:38:04.714Z,100496.28
2022-09-04T06:40:56.820Z,100498.63
2022-09-04T06:43:34.598Z,100504.53
2022-09-04T06:46:17.213Z,100505.81
2022-09-04T06:48:57.721Z,100509.56
2022-09-04T06:51:43.007Z,100506.50
2022-09-04T06:54:23.131Z,100504.06
2022-09-04T06:57:10.182Z,100516.59
2022-09-04T07:00:04.761Z,100518.94
2022-09-04T07:03:09.631Z,100509.03
2022-09-04T07:05:49.069Z,100519.22
2022-09-04T07:08:27.865Z,100507.34
2022-09-04T07:11:09.908Z,100509.50
2022-09-04T07:13:52.053Z,100524.91
2022-09-04T07:16:43.083Z,100529.03
2022-09-04T07:19:45.136Z,100534.16
2022-09-04T07:22:29.951Z,100541.59
2022-09-04T07:25:22.575Z,100547.41
2022-09-04T07:28:03.181Z,100549.72
2022-09-04T07:30:38.498Z,100555.72
2022-09-04T07:33:13.705Z,100554.31
2022-09-04T07:35:49.749Z,100554.69
2022-09-04T07:38:29.689Z,100564.28
2022-09-04T07:41:07.884Z,100567.69
2022-09-04T07:43:46.196Z,100562.25
2022-09-04T07:46:22.654Z,100575.25
2022-09-04T07:49:09.703Z,100568.13
2022-09-04T07:51:44.399Z,100572.34
2022-09-04T07:54:44.179Z,100569.00
2022-09-04T07:57:30.373Z,100579.34
2022-09-04T08:00:10.326Z,100580.84
2022-09-04T08:02:59.194Z,100583.19
2022-09-04T08:05:31.966Z,100597.22
2022-09-04T08:08:47.275Z,100602.78
2022-09-04T08:11:41.502Z,100601.78
2022-09-04T08:14:24.995Z,100607.22
2022-09-04T08:17:07.516Z,100618.69
2022-09-04T08:19:50.118Z,100623.28
2022-09-04T08:22:29.904Z,100619.34
2022-09-04T08:25:13.000Z,100627.47
2022-09-04T08:27:54.473Z,100631.00
2022-09-04T08:30:24.015Z,100624.13
2022-09-04T08:33:19.566Z,100631.88
2022-09-04T08:35:58.611Z,100633.28
2022-09-04T08:38:46.982Z,100633.56
2022-09-04T08:41:54.989Z,100629.28
2022-09-04T08:44:45.482Z,100637.69
2022-09-04T08:48:02.055Z,100637.78
2022-09-04T08:50:56.305Z,100630.81
2022-09-04T08:54:02.567Z,100641.06
2022-09-04T08:56:39.093Z,100638.03
2022-09-04T08:59:43.742Z,100641.72
2022-09-04T09:02:44.412Z,100651.13
2022-09-04T09:05:49.795Z,100664.97
2022-09-04T09:08:34.360Z,100663.41
2022-09-04T09:11:36.040Z,100669.28
2022-09-04T09:14:29.362Z,100670.88
2022-09-04T09:17:12.670Z,100669.75
2022-09-04T09:20:00.961Z,100680.53
2022-09-04T09:23:09.592Z,100679.84
2022-09-04T09:25:48.310Z,100686.31
2022-09-04T09:28:48.747Z,100691.94
2022-09-04T09:32:08.623Z,100692.28
2022-09-04T09:35:09.122Z,100688.97
2022-09-04T09:38:05.485Z,100693.41
2022-09-04T09:41:07.119Z,100696.03
2022-09-04T09:44:11.556Z,100699.03
2022-09-04T09:47:04.330Z,100705.13
2022-09-04T09:50:11.869Z,100700.28
2022-09-04T09:53:01.963Z,100707.75
2022-09-04T09:56:09.957Z,100700.16
2022-09-04T09:59:19.760Z,100696.00
2022-09-04T10:02:22.690Z,100698.78
2022-09-04T10:05:33.411Z,100691.91
2022-09-04T10:08:23.357Z,100682.84
2022-09-04T10:11:23.811Z,100679.69
2022-09-04T10:14:25.162Z,100685.97
2022-09-04T10:17:20.116Z,100690.94
2022-09-04T10:20:36.038Z,100687.06
2022-09-04T10:23:31.972Z,100681.16
2022-09-04T10:26:18.468Z,100689.56
2022-09-04T10:29:19.739Z,100690.47
2022-09-04T10:32:01.586Z,100694.28
2022-09-04T10:35:03.415Z,100688.19
2022-09-04T10:37:49.541Z,100682.31
2022-09-04T10:40:39.694Z,100683.56
2022-09-04T10:43:24.951Z,100680.88
2022-09-04T10:46:04.169Z,100669.94
2022-09-04T10:49:06.432Z,100675.38
2022-09-04T10:52:21.939Z,100666.09
2022-09-04T10:55:26.729Z,100680.78
2022-09-04T10:58:28.045Z,100680.88
2022-09-04T11:01:19.580Z,100678.03
2022-09-04T11:04:13.737Z,100678.72
2022-09-04T11:07:04.985Z,100664.63
2022-09-04T11:09:48.198Z,100672.81
2022-09-04T11:12:32.906Z,100664.81
2022-09-04T11:15:37.454Z,100662.28
2022-09-04T11:18:53.629Z,100677.91
2022-09-04T11:22:00.349Z,100671.03
2022-09-04T11:25:00.371Z,100669.19
2022-09-04T11:28:13.789Z,100672.06
2022-09-04T11:31:06.078Z,100670.66
2022-09-04T11:34:09.387Z,100656.97
2022-09-04T11:37:12.391Z,100644.47
2022-09-04T11:40:17.342Z,100655.56
2022-09-04T11:43:01.642Z,100648.19
2022-09-04T11:46:05.269Z,100650.19
2022-09-04T11:49:23.996Z,100644.06
2022-09-04T11:52:27.252Z,100633.16
2022-09-04T11:55:26.336Z,100650.00
2022-09-04T12:02:00.882Z,100660.97
2022-09-04T12:05:04.027Z,100676.59
2022-09-04T12:14:20.949Z,100697.22
2022-09-04T12:17:20.059Z,100694.72
2022-09-04T12:20:31.213Z,100685.22
2022-09-04T12:23:26.660Z,100681.88
2022-09-04T12:26:25.242Z,100679.66
2022-09-04T12:29:29.002Z,100680.84
2022-09-04T12:32:28.896Z,100684.31
2022-09-04T12:35:33.612Z,100673.34
2022-09-04T12:38:48.565Z,100660.34
2022-09-04T12:41:27.388Z,100667.84
2022-09-04T12:44:08.784Z,100663.84
2022-09-04T12:46:50.451Z,100655.69
2022-09-04T12:49:35.649Z,100664.91
2022-09-04T12:52:19.312Z,100666.72
2022-09-04T12:55:01.485Z,100672.81
2022-09-04T12:57:40.224Z,100682.88
2022-09-04T13:00:13.921Z,100664.28
2022-09-04T13:02:54.468Z,100678.84
2022-09-04T13:05:49.762Z,100675.03
2022-09-04T13:08:35.363Z,100676.56
2022-09-04T13:11:20.334Z,100672.22
2022-09-04T13:14:03.152Z,100668.63
2022-09-04T13:16:38.860Z,100672.72
2022-09-04T13:19:17.222Z,100652.69
2022-09-04T13:22:04.627Z,100654.59
2022-09-04T13:24:51.633Z,100650.63
2022-09-04T13:27:41.115Z,100658.75
2022-09-04T13:30:22.233Z,100670.00
2022-09-04T13:33:03.002Z,100666.69
2022-09-04T13:36:01.258Z,100649.38
2022-09-04T13:38:57.921Z,100649.94
2022-09-04T13:42:08.673Z,100649.16
2022-09-04T13:48:18.342Z,100658.66
2022-09-04T13:51:19.184Z,100668.09
2022-09-04T15:10:09.760Z,100661.50
2022-09-04T17:59:11.661Z,100653.19
2022-09-04T18:02:08.230Z,100650.66
2022-09-04T18:04:51.568Z,100658.19
2022-09-04T18:52:13.901Z,100665.91
2022-09-04T19:23:23.419Z,100654.91
2022-09-04T19:27:26.923Z,100652.41
